createdAt,value
2022-09-05T00:00:04.800Z,2.70
2022-09-05T00:02:49.294Z,2.67
2022-09-05T00:05:36.407Z,3.10
2022-09-05T00:08:18.680Z,2.50
2022-09-05T00:11:39.767Z,3.00
2022-09-05T00:14:09.010Z,2.60
2022-09-05T00:16:54.383Z,2.27
2022-09-05T00:24:22.526Z,2.60
2022-09-05T00:24:31.280Z,2.90
2022-09-05T00:25:34.806Z,2.77
2022-09-05T00:28:25.658Z,3.33
2022-09-05T00:31:55.345Z,3.37
2022-09-05T00:34:12.442Z,2.63
2022-09-05T00:36:46.315Z,2.63
2022-09-05T00:39:19.040Z,2.93
2022-09-05T00:41:50.424Z,2.90
2022-09-05T00:44:21.134Z,2.50
2022-09-05T00:46:58.081Z,2.97
2022-09-05T00:49:33.984Z,3.00
2022-09-05T00:52:05.451Z,3.10
2022-09-05T00:54:46.835Z,3.43
2022-09-05T00:57:50.770Z,2.80
2022-09-05T01:00:19.638Z,3.10
2022-09-05T01:03:11.865Z,2.87
2022-09-05T01:05:49.312Z,3.40
2022-09-05T01:08:52.864Z,3.83
2022-09-05T01:11:36.042Z,2.60
2022-09-05T01:14:17.488Z,2.92
2022-09-05T01:17:07.045Z,2.73
2022-09-05T01:19:50.250Z,2.73
2022-09-05T01:22:51.795Z,2.97
2022-09-05T01:25:46.956Z,2.90
2022-09-05T01:29:15.982Z,3.00
2022-09-05T01:31:24.559Z,3.17
2022-09-05T01:34:00.761Z,2.67
2022-09-05T01:36:50.187Z,2.93
2022-09-05T01:40:11.201Z,2.60
2022-09-05T01:42:31.717Z,2.60
2022-09-05T01:45:06.125Z,2.63
2022-09-05T01:47:44.019Z,3.07
2022-09-05T01:50:24.883Z,2.43
2022-09-05T01:53:07.546Z,2.87
2022-09-05T01:56:04.266Z,2.40
2022-09-05T01:58:49.017Z,2.60
2022-09-05T02:01:32.588Z,3.23
2022-09-05T02:04:17.993Z,3.13
2022-09-05T02:07:20.094Z,3.20
2022-09-05T02:10:09.409Z,3.90
2022-09-05T02:12:44.977Z,3.57
2022-09-05T02:15:41.846Z,2.70
2022-09-05T02:18:19.206Z,2.90
2022-09-05T02:20:50.999Z,3.00
2022-09-05T02:23:41.001Z,2.80
2022-09-05T02:26:17.184Z,2.73
2022-09-05T02:28:53.554Z,2.47
2022-09-05T02:31:28.212Z,3.20
2022-09-05T02:34:02.038Z,3.00
2022-09-05T02:36:36.465Z,3.30
2022-09-05T02:45:00.420Z,3.53
2022-09-05T02:45:06.890Z,2.83
2022-09-05T02:45:26.646Z,2.80
2022-09-05T02:48:08.303Z,3.20
2022-09-05T02:53:49.633Z,2.70
2022-09-05T02:57:42.652Z,2.90
2022-09-05T02:57:43.076Z,3.37
2022-09-05T03:00:11.557Z,3.40
2022-09-05T03:02:58.662Z,3.33
2022-09-05T03:05:30.669Z,3.93
2022-09-05T03:08:14.298Z,3.50
2022-09-05T03:11:04.900Z,3.20
2022-09-05T03:13:58.043Z,2.97
2022-09-05T03:17:01.347Z,3.60
2022-09-05T03:20:11.757Z,3.00
2022-09-05T03:23:04.741Z,3.17
2022-09-05T03:26:21.499Z,3.90
2022-09-05T03:29:16.400Z,3.63
2022-09-05T03:32:04.006Z,3.53
2022-09-05T03:34:48.300Z,3.43
2022-09-05T03:37:47.469Z,3.73
2022-09-05T03:40:34.568Z,3.63
2022-09-05T03:43:29.863Z,3.60
2022-09-05T03:46:11.289Z,3.13
2022-09-05T03:48:54.043Z,3.30
2022-09-05T03:57:19.944Z,3.80
2022-09-05T03:57:27.647Z,2.63
2022-09-05T03:57:52.781Z,4.00
2022-09-05T04:00:28.516Z,3.00
2022-09-05T04:08:07.034Z,3.43
2022-09-05T04:08:18.782Z,3.37
2022-09-05T04:09:06.701Z,3.73
2022-09-05T04:11:38.999Z,2.67
2022-09-05T04:14:10.897Z,3.03
2022-09-05T04:16:51.908Z,3.60
2022-09-05T04:19:28.104Z,2.90
2022-09-05T04:22:07.005Z,4.10
2022-09-05T04:24:43.494Z,3.20
2022-09-05T04:27:28.129Z,3.50
2022-09-05T04:30:01.247Z,3.33
2022-09-05T04:32:39.069Z,3.13
2022-09-05T04:35:22.823Z,3.27
2022-09-05T04:37:59.359Z,3.03
2022-09-05T04:40:46.741Z,3.50
2022-09-05T04:43:24.301Z,3.03
2022-09-05T04:45:55.276Z,3.57
2022-09-05T04:48:34.102Z,3.63
2022-09-05T04:51:06.312Z,3.77
2022-09-05T04:54:19.874Z,3.57
2022-09-05T04:56:53.941Z,3.70
2022-09-05T05:01:22.721Z,3.65
2022-09-05T05:06:09.938Z,4.40
2022-09-05T05:06:14.483Z,3.90
2022-09-05T05:08:13.589Z,4.10
2022-09-05T05:15:55.226Z,3.07
2022-09-05T05:17:54.907Z,3.73
2022-09-05T05:18:12.354Z,3.90
2022-09-05T05:19:26.627Z,3.70
2022-09-05T05:21:58.459Z,3.77
2022-09-05T05:24:30.874Z,4.10
2022-09-05T05:27:07.907Z,3.60
2022-09-05T05:29:44.505Z,3.70
2022-09-05T05:32:24.913Z,4.20
2022-09-05T05:35:11.265Z,3.60
2022-09-05T05:37:45.181Z,3.50
2022-09-05T05:40:25.473Z,4.10
2022-09-05T05:42:54.193Z,3.57
2022-09-05T05:45:28.170Z,3.73
2022-09-05T05:48:00.776Z,4.00
2022-09-05T05:50:49.883Z,4.00
2022-09-05T05:53:43.631Z,3.93
2022-09-05T05:56:37.327Z,4.03
2022-09-05T05:59:33.017Z,4.00
2022-09-05T06:02:54.953Z,4.30
2022-09-05T06:06:11.857Z,4.17
2022-09-05T06:13:46.055Z,4.10
2022-09-05T06:14:55.800Z,4.40
2022-09-05T06:15:50.026Z,3.87
2022-09-05T06:18:45.738Z,4.20
2022-09-05T06:22:05.781Z,3.90
2022-09-05T06:24:53.661Z,4.17
2022-09-05T06:28:17.502Z,4.20
2022-09-05T06:30:44.369Z,4.33
2022-09-05T06:33:25.496Z,4.03
2022-09-05T06:36:11.805Z,4.13
2022-09-05T06:38:55.795Z,3.97
2022-09-05T06:41:34.614Z,4.00
2022-09-05T06:44:35.033Z,3.47
2022-09-05T06:47:23.713Z,4.27
2022-09-05T06:50:26.930Z,3.50
2022-09-05T06:53:23.685Z,4.43
2022-09-05T06:56:00.350Z,4.53
2022-09-05T06:58:52.999Z,4.30
2022-09-05T07:01:59.628Z,4.60
2022-09-05T07:04:30.874Z,4.20
2022-09-05T07:07:24.550Z,4.40
2022-09-05T07:10:00.362Z,4.37
2022-09-05T07:12:31.206Z,4.23
2022-09-05T07:15:10.330Z,4.33
2022-09-05T07:18:08.944Z,4.77
2022-09-05T07:21:17.458Z,4.97
2022-09-05T07:24:05.467Z,3.50
2022-09-05T07:26:52.273Z,4.50
2022-09-05T07:29:27.769Z,3.83
2022-09-05T07:31:59.381Z,4.77
2022-09-05T07:34:30.517Z,6.17
2022-09-05T07:37:15.407Z,5.00
2022-09-05T07:39:49.336Z,4.50
2022-09-05T07:42:22.559Z,4.60
2022-09-05T07:44:56.302Z,4.70
2022-09-05T07:47:28.781Z,4.50
2022-09-05T07:52:23.496Z,4.77
2022-09-05T07:56:54.645Z,4.33
2022-09-05T07:57:09.947Z,4.00
2022-09-05T07:58:37.069Z,4.78
2022-09-05T08:01:04.768Z,4.47
2022-09-05T08:03:33.928Z,4.53
2022-09-05T08:06:06.215Z,4.73
2022-09-05T08:09:18.127Z,5.30
2022-09-05T08:11:37.887Z,5.10
2022-09-05T08:14:44.218Z,4.83
2022-09-05T08:16:58.481Z,4.90
2022-09-05T08:19:50.040Z,4.77
2022-09-05T08:22:22.344Z,5.43
2022-09-05T08:25:00.010Z,5.00
2022-09-05T08:27:32.179Z,5.20
2022-09-05T08:30:24.604Z,4.60
2022-09-05T08:33:03.468Z,4.87
2022-09-05T08:35:45.423Z,5.20
2022-09-05T08:38:15.172Z,5.77
2022-09-05T08:40:50.090Z,4.30
2022-09-05T08:46:39.282Z,5.73
2022-09-05T08:46:42.971Z,5.00
2022-09-05T08:49:46.507Z,4.63
2022-09-05T08:52:27.750Z,4.93
2022-09-05T08:55:07.740Z,5.00
2022-09-05T08:57:59.585Z,5.13
2022-09-05T09:00:33.498Z,4.60
2022-09-05T09:03:11.950Z,4.70
2022-09-05T09:06:22.169Z,5.80
2022-09-05T09:09:12.616Z,4.80
2022-09-05T09:11:44.034Z,5.00
2022-09-05T09:14:52.432Z,4.77
2022-09-05T09:17:32.712Z,4.73
2022-09-05T09:20:15.511Z,4.97
2022-09-05T09:22:54.034Z,5.50
2022-09-05T09:25:27.247Z,5.03
2022-09-05T09:28:48.431Z,5.00
2022-09-05T09:31:05.569Z,4.50
2022-09-05T09:33:41.482Z,4.63
2022-09-05T09:36:23.667Z,4.60
2022-09-05T09:39:08.191Z,4.80
2022-09-05T09:42:08.263Z,4.83
2022-09-05T09:45:22.945Z,4.83
2022-09-05T09:48:35.973Z,6.20
2022-09-05T09:51:19.205Z,5.40
2022-09-05T09:53:59.625Z,5.37
2022-09-05T09:56:52.299Z,4.27
2022-09-05T09:59:53.874Z,4.53
2022-09-05T10:04:10.473Z,5.07
2022-09-05T10:10:49.589Z,4.80
2022-09-05T10:10:55.123Z,5.77
2022-09-05T10:13:07.754Z,4.73
2022-09-05T10:15:55.097Z,5.10
2022-09-05T10:18:43.649Z,5.47
2022-09-05T10:21:44.772Z,5.53
2022-09-05T10:24:48.639Z,5.23
2022-09-05T10:27:26.292Z,4.67
2022-09-05T10:30:07.029Z,5.00
2022-09-05T10:35:05.198Z,5.00
2022-09-05T10:35:37.677Z,4.77
2022-09-05T10:38:12.621Z,5.10
2022-09-05T10:41:09.739Z,5.57
2022-09-05T10:43:34.173Z,4.77
2022-09-05T10:46:17.070Z,5.47
2022-09-05T10:48:54.236Z,5.07
2022-09-05T10:51:30.249Z,4.67
2022-09-05T10:54:13.725Z,5.30
2022-09-05T10:56:45.125Z,5.10
2022-09-05T11:02:23.121Z,5.07
2022-09-05T11:02:26.499Z,4.63
2022-09-05T11:05:09.430Z,4.80
2022-09-05T11:07:42.062Z,5.57
2022-09-05T11:10:15.731Z,6.03
2022-09-05T11:13:08.438Z,5.17
2022-09-05T11:16:03.625Z,4.57
2022-09-05T11:18:56.919Z,5.47
2022-09-05T11:21:41.782Z,5.87
2022-09-05T11:24:27.249Z,5.40
2022-09-05T11:27:24.416Z,5.67
2022-09-05T11:29:49.910Z,4.90
2022-09-05T11:39:05.302Z,4.87
2022-09-05T11:39:51.604Z,4.97
2022-09-05T11:40:04.531Z,6.38
2022-09-05T11:42:06.811Z,4.70
2022-09-05T11:44:41.493Z,4.23
2022-09-05T11:47:45.058Z,4.77
2022-09-05T11:50:44.923Z,4.50
2022-09-05T11:54:05.781Z,5.50
2022-09-05T11:57:31.830Z,4.90
2022-09-05T12:00:30.781Z,5.57
2022-09-05T12:03:57.389Z,5.30
2022-09-05T12:06:30.670Z,5.73
2022-09-05T12:09:06.336Z,4.37
2022-09-05T12:11:47.359Z,5.30
2022-09-05T12:14:33.710Z,5.60
2022-09-05T12:17:06.442Z,4.60
2022-09-05T12:19:44.024Z,5.10
2022-09-05T12:22:29.334Z,5.10
2022-09-05T12:25:53.541Z,4.20
2022-09-05T12:29:27.198Z,4.80
2022-09-05T12:32:50.665Z,5.00
2022-09-05T12:36:07.739Z,5.13
2022-09-05T12:39:40.279Z,4.93
2022-09-05T12:41:37.579Z,4.90
2022-09-05T12:43:41.955Z,5.00
2022-09-05T12:45:44.117Z,5.80
2022-09-05T12:48:17.325Z,5.40
2022-09-05T12:50:55.939Z,5.77
2022-09-05T12:53:25.164Z,5.37
2022-09-05T12:56:52.905Z,4.87
2022-09-05T13:02:58.786Z,5.73
2022-09-05T13:03:05.222Z,4.77
2022-09-05T13:04:35.782Z,5.30
2022-09-05T13:07:21.034Z,5.03
2022-09-05T13:12:07.440Z,5.43
2022-09-05T13:14:59.974Z,4.87
2022-09-05T13:15:40.157Z,5.60
2022-09-05T13:18:12.431Z,4.63
2022-09-05T13:20:51.255Z,5.57
2022-09-05T13:23:23.665Z,5.17
2022-09-05T13:25:58.275Z,5.20
2022-09-05T13:28:30.268Z,4.53
2022-09-05T13:37:14.866Z,5.10
2022-09-05T13:38:03.039Z,5.03
2022-09-05T13:38:16.166Z,4.97
2022-09-05T13:39:52.286Z,5.18
2022-09-05T13:42:22.843Z,4.53
2022-09-05T13:44:59.250Z,5.07
2022-09-05T13:47:50.912Z,4.53
2022-09-05T13:50:26.329Z,5.43
2022-09-05T13:53:04.798Z,4.93
2022-09-05T13:55:44.020Z,4.87
2022-09-05T13:58:19.505Z,4.37
2022-09-05T14:01:12.250Z,4.30
2022-09-05T14:04:07.693Z,4.60
2022-09-05T14:10:26.193Z,4.23
2022-09-05T14:13:02.395Z,4.60
2022-09-05T14:15:40.282Z,4.70
2022-09-05T14:18:21.037Z,4.80
2022-09-05T14:21:12.448Z,4.67
2022-09-05T14:23:53.261Z,4.33
2022-09-05T14:26:29.077Z,4.10
2022-09-05T14:29:13.953Z,4.37
2022-09-05T14:37:34.936Z,4.60
2022-09-05T14:37:48.611Z,4.13
2022-09-05T14:38:04.257Z,3.73
2022-09-05T14:41:11.564Z,4.17
2022-09-05T14:44:19.045Z,4.20
2022-09-05T14:47:35.191Z,3.40
2022-09-05T14:50:24.497Z,4.47
2022-09-05T14:57:23.189Z,5.00
2022-09-05T15:02:47.775Z,4.20
2022-09-05T15:02:52.381Z,4.10
2022-09-05T15:04:44.847Z,3.80
2022-09-05T15:07:19.338Z,4.70
2022-09-05T15:12:16.355Z,4.20
2022-09-05T15:12:47.675Z,4.77
2022-09-05T15:15:25.638Z,4.80
2022-09-05T15:17:57.817Z,5.80
2022-09-05T15:20:33.093Z,4.07
2022-09-05T15:23:16.229Z,4.07
2022-09-05T15:25:47.980Z,3.90
2022-09-05T15:28:22.860Z,4.20
2022-09-05T15:30:58.840Z,4.20
2022-09-05T15:33:29.567Z,4.60
2022-09-05T15:36:00.073Z,3.60
2022-09-05T15:38:31.370Z,4.47
2022-09-05T15:41:20.397Z,5.20
2022-09-05T15:43:52.488Z,4.20
2022-09-05T15:46:26.245Z,4.10
2022-09-05T15:49:00.543Z,4.67
2022-09-05T15:51:45.640Z,4.00
2022-09-05T15:54:37.666Z,4.20
2022-09-05T15:57:17.461Z,5.10
2022-09-05T15:59:49.085Z,4.50
2022-09-05T16:02:22.108Z,4.50
2022-09-05T16:10:27.338Z,4.23
2022-09-05T16:10:35.758Z,4.00
2022-09-05T16:11:07.706Z,4.50
2022-09-05T16:13:25.769Z,3.50
2022-09-05T16:20:57.114Z,3.87
2022-09-05T16:23:30.677Z,4.10
2022-09-05T16:23:33.599Z,4.30
2022-09-05T16:24:59.614Z,4.67
2022-09-05T16:27:53.924Z,4.20
2022-09-05T16:30:23.946Z,4.73
2022-09-05T16:32:57.486Z,3.97
2022-09-05T16:35:26.729Z,4.77
2022-09-05T16:38:01.308Z,4.47
2022-09-05T16:40:32.708Z,3.78
2022-09-05T16:43:06.666Z,4.20
2022-09-05T16:45:40.708Z,4.60
2022-09-05T16:48:24.457Z,3.47
2022-09-05T16:50:58.089Z,4.30
2022-09-05T16:53:34.162Z,4.10
2022-09-05T16:56:08.525Z,4.50
2022-09-05T16:58:40.896Z,4.50
2022-09-05T17:01:25.014Z,4.40
2022-09-05T17:03:55.636Z,4.20
2022-09-05T17:06:26.274Z,4.17
2022-09-05T17:09:13.508Z,4.00
2022-09-05T17:11:55.975Z,4.20
2022-09-05T17:14:35.553Z,3.80
2022-09-05T17:17:19.726Z,4.20
2022-09-05T17:20:07.303Z,4.10
2022-09-05T17:29:17.525Z,4.13
2022-09-05T17:29:34.491Z,3.90
2022-09-05T17:29:44.203Z,4.53
2022-09-05T17:31:54.933Z,4.40
2022-09-05T17:34:42.668Z,3.80
2022-09-05T17:37:49.057Z,4.35
2022-09-05T17:40:43.738Z,4.27
2022-09-05T17:43:28.475Z,5.10
2022-09-05T17:46:12.722Z,4.70
2022-09-05T17:49:19.843Z,4.80
2022-09-05T17:52:17.310Z,3.67
2022-09-05T17:54:50.245Z,4.20
2022-09-05T17:57:48.887Z,3.87
2022-09-05T18:01:04.616Z,4.47
2022-09-05T18:04:08.496Z,4.60
2022-09-05T18:10:07.534Z,3.97
2022-09-05T18:13:12.920Z,3.77
2022-09-05T18:16:03.453Z,3.70
2022-09-05T18:19:32.210Z,4.23
2022-09-05T18:21:25.628Z,3.87
2022-09-05T18:24:02.383Z,4.50
2022-09-05T18:26:39.337Z,4.50
2022-09-05T18:29:16.148Z,4.50
2022-09-05T18:32:04.397Z,5.13
2022-09-05T18:35:36.118Z,4.10
2022-09-05T18:38:27.528Z,3.80
2022-09-05T18:41:18.905Z,4.50
2022-09-05T18:44:14.056Z,4.70
2022-09-05T18:46:45.873Z,4.20
2022-09-05T18:50:24.635Z,4.60
2022-09-05T18:52:11.477Z,4.40
2022-09-05T18:54:44.935Z,4.50
2022-09-05T18:57:28.781Z,4.90
2022-09-05T19:00:03.096Z,5.17
2022-09-05T19:02:51.264Z,5.43
2022-09-05T19:05:41.089Z,5.03
2022-09-05T19:08:28.680Z,4.60
2022-09-05T19:10:59.386Z,4.40
2022-09-05T19:13:32.384Z,4.93
2022-09-05T19:16:42.130Z,5.00
2022-09-05T19:19:09.766Z,4.37
2022-09-05T19:21:40.113Z,4.97
2022-09-05T19:24:11.944Z,5.30
2022-09-05T19:26:40.356Z,4.80
2022-09-05T19:36:50.138Z,5.23
2022-09-05T19:37:05.765Z,5.30
2022-09-05T19:37:05.925Z,5.40
2022-09-05T19:37:48.443Z,4.50
2022-09-05T19:47:29.339Z,4.40
2022-09-05T19:47:38.376Z,4.80
2022-09-05T19:47:56.039Z,4.20
2022-09-05T19:49:06.161Z,3.90
2022-09-05T19:51:36.511Z,5.43
2022-09-05T19:54:05.843Z,4.40
2022-09-05T19:56:37.553Z,4.70
2022-09-05T19:59:16.866Z,4.67
2022-09-05T20:01:47.494Z,4.00
2022-09-05T20:04:18.578Z,5.00
2022-09-05T20:06:46.614Z,4.93
2022-09-05T20:09:16.861Z,4.30
2022-09-05T20:11:49.352Z,4.90
2022-09-05T20:14:23.178Z,5.17
2022-09-05T20:16:54.963Z,4.70
2022-09-05T20:19:29.936Z,5.53
2022-09-05T20:22:12.832Z,4.90
2022-09-05T20:24:58.743Z,5.33
2022-09-05T20:27:29.525Z,4.83
2022-09-05T20:30:00.214Z,5.50
2022-09-05T20:32:39.815Z,5.10
2022-09-05T20:40:37.211Z,4.60
2022-09-05T20:43:17.030Z,4.80
2022-09-05T20:43:30.175Z,5.37
2022-09-05T20:43:52.341Z,5.10
2022-09-05T20:50:53.992Z,4.63
2022-09-05T20:54:21.963Z,5.70
2022-09-05T20:54:28.317Z,5.00
2022-09-05T20:55:40.010Z,5.30
2022-09-05T20:58:11.128Z,5.07
2022-09-05T21:01:20.176Z,5.10
2022-09-05T21:03:36.647Z,5.33
2022-09-05T21:06:19.977Z,5.00
2022-09-05T21:08:47.671Z,5.73
2022-09-05T21:11:15.349Z,4.70
2022-09-05T21:13:52.411Z,4.77
2022-09-05T21:16:22.868Z,4.90
2022-09-05T21:18:52.202Z,4.50
2022-09-05T21:21:29.282Z,5.20
2022-09-05T21:24:09.118Z,4.87
2022-09-05T21:26:47.706Z,4.73
2022-09-05T21:29:17.434Z,4.60
2022-09-05T21:31:49.056Z,4.50
2022-09-05T21:34:25.483Z,4.50
2022-09-05T21:37:01.414Z,5.10
2022-09-05T21:39:39.727Z,5.40
2022-09-05T21:42:54.812Z,5.63
2022-09-05T21:47:48.625Z,5.00
2022-09-05T21:47:53.719Z,7.07
2022-09-05T21:50:31.262Z,4.67
2022-09-05T21:55:21.913Z,5.10
2022-09-05T21:59:22.616Z,4.80
2022-09-05T21:59:24.586Z,5.40
2022-09-05T22:01:51.974Z,5.20
2022-09-05T22:04:21.034Z,4.30
2022-09-05T22:06:49.081Z,5.00
2022-09-05T22:09:18.683Z,5.23
2022-09-05T22:11:49.976Z,5.20
2022-09-05T22:14:18.008Z,4.87
2022-09-05T22:16:47.240Z,5.60
2022-09-05T22:19:17.681Z,4.93
2022-09-05T22:21:45.380Z,5.53
2022-09-05T22:24:13.895Z,5.63
2022-09-05T22:27:10.828Z,4.93
2022-09-05T22:29:35.417Z,5.80
2022-09-05T22:32:03.963Z,5.30
2022-09-05T22:34:31.446Z,6.40
2022-09-05T22:36:58.961Z,5.40
2022-09-05T22:39:36.910Z,4.93
2022-09-05T22:42:10.883Z,5.40
2022-09-05T22:44:39.671Z,5.20
2022-09-05T22:47:07.868Z,5.90
2022-09-05T22:49:36.343Z,6.23
2022-09-05T22:52:05.094Z,6.70
2022-09-05T22:54:32.632Z,7.00
2022-09-05T22:57:00.125Z,6.93
2022-09-05T22:59:28.915Z,6.60
2022-09-05T23:01:56.532Z,6.80
2022-09-05T23:04:24.227Z,5.50
2022-09-05T23:06:51.765Z,5.80
2022-09-05T23:09:19.256Z,6.70
2022-09-05T23:11:46.766Z,7.20
2022-09-05T23:14:14.272Z,6.40
2022-09-05T23:16:43.226Z,7.40
2022-09-05T23:19:10.674Z,6.63
2022-09-05T23:21:38.146Z,6.27
2022-09-05T23:24:06.271Z,6.67
2022-09-05T23:26:33.773Z,6.30
2022-09-05T23:29:01.292Z,7.13
2022-09-05T23:31:28.862Z,6.97
2022-09-05T23:33:58.182Z,6.67
2022-09-05T23:36:25.677Z,6.60
2022-09-05T23:38:53.138Z,6.53
2022-09-05T23:41:21.024Z,7.23
2022-09-05T23:43:48.623Z,7.10
2022-09-05T23:46:16.228Z,6.90
2022-09-05T23:48:43.801Z,6.30
2022-09-05T23:51:13.931Z,6.63
2022-09-05T23:53:41.924Z,7.13
2022-09-05T23:56:11.576Z,6.87
2022-09-05T23:58:39.656Z,7.10
